Time;durP1;ratioP1;P1;durP2;ratioP2;P2;SDS_P1;SDS_P2;PMS_P1;PMS_P2;Temp;Humidity;BMP_temperature;BMP_pressure;BME280_temperature;BME280_humidity;BME280_pressure;Samples;Min_cycle;Max_cycle;Signal;HPM_P1;HPM_P2
2022/03/22 00:00:33;;;;;;;13.60;8.87;;;2.20;1.00;196.50;224877.00;;;;7397209;19;20149;-75
2022/03/22 00:03:01;;;;;;;13.77;9.03;;;2.10;1.00;196.50;224877.00;;;;7395095;19;20128;-76
2022/03/22 00:05:28;;;;;;;11.73;8.60;;;2.10;1.00;196.50;224877.00;;;;7399590;19;20125;-74
2022/03/22 00:08:03;;;;;;;11.73;8.77;;;2.10;1.00;196.50;224877.00;;;;7391111;19;20140;-75
2022/03/22 00:10:30;;;;;;;12.17;8.63;;;2.10;1.00;196.50;224877.00;;;;7395021;19;20145;-75
2022/03/22 00:12:58;;;;;;;12.23;8.87;;;2.10;1.00;196.50;224877.00;;;;7395344;19;20149;-74
2022/03/22 00:15:33;;;;;;;12.03;8.30;;;2.10;1.00;196.50;224877.00;;;;7395610;19;20157;-74
2022/03/22 00:18:20;;;;;;;13.87;9.43;;;2.00;1.00;196.50;224877.00;;;;7395739;19;20204;-74
2022/03/22 00:20:54;;;;;;;12.47;8.40;;;2.20;1.00;196.50;224877.00;;;;7398078;19;20583;-75
2022/03/22 00:23:21;;;;;;;16.47;9.23;;;2.20;1.00;196.50;224877.00;;;;7396372;19;20145;-74
2022/03/22 00:25:49;;;;;;;18.93;8.67;;;2.20;1.00;196.50;224877.00;;;;7394580;19;20133;-75
2022/03/22 00:28:28;;;;;;;12.47;8.03;;;2.20;1.00;196.50;224877.00;;;;7396388;19;20211;-74
2022/03/22 00:31:02;;;;;;;14.40;8.93;;;2.20;1.00;196.50;224877.00;;;;7397518;19;20129;-74
2022/03/22 00:33:38;;;;;;;14.17;9.20;;;2.20;1.00;196.50;224877.00;;;;7395919;19;20137;-74
2022/03/22 00:36:05;;;;;;;14.93;9.23;;;2.10;1.00;196.50;224877.00;;;;7395484;19;20770;-74
2022/03/22 00:38:32;;;;;;;14.53;8.80;;;2.10;1.00;196.50;224877.00;;;;7396776;19;20158;-75
2022/03/22 00:41:13;;;;;;;16.37;9.70;;;2.10;1.00;196.50;224877.00;;;;7396125;19;20121;-75
2022/03/22 00:43:47;;;;;;;12.37;8.77;;;2.10;1.00;196.50;224877.00;;;;7394498;19;20140;-74
2022/03/22 00:46:21;;;;;;;11.40;8.33;;;2.20;1.00;196.50;224877.00;;;;7392526;19;20170;-74
2022/03/22 00:48:48;;;;;;;15.53;9.07;;;2.10;1.00;196.50;224877.00;;;;7393483;19;20143;-75
2022/03/22 00:51:16;;;;;;;13.40;9.10;;;1.90;1.00;196.50;224877.00;;;;7394367;19;20135;-74
2022/03/22 00:53:51;;;;;;;15.30;9.10;;;1.80;1.00;196.50;224877.00;;;;7396564;19;20130;-75
2022/03/22 00:56:19;;;;;;;12.50;8.87;;;1.60;1.00;196.50;224877.00;;;;7395491;19;20142;-75
2022/03/22 01:00:01;;;;;;;15.23;8.77;;;1.50;1.00;196.50;224877.00;;;;7394787;19;20137;-74
2022/03/22 01:01:40;;;;;;;15.00;9.37;;;1.50;1.00;196.50;224877.00;;;;7394023;19;20144;-74
2022/03/22 01:04:09;;;;;;;12.97;9.10;;;1.50;1.00;196.50;224877.00;;;;7389684;19;20136;-75
2022/03/22 01:06:37;;;;;;;16.33;8.70;;;1.40;1.00;196.50;224877.00;;;;7399374;19;20154;-75
2022/03/22 01:09:10;;;;;;;12.70;9.07;;;1.40;1.00;196.50;224877.00;;;;7390322;19;20494;-76
2022/03/22 01:11:39;;;;;;;12.30;8.37;;;1.30;1.00;196.50;224877.00;;;;7393335;19;20141;-74
2022/03/22 01:14:08;;;;;;;15.53;9.37;;;1.30;1.00;196.50;224877.00;;;;7395132;19;20145;-74
2022/03/22 01:16:43;;;;;;;12.43;8.90;;;1.40;1.00;196.50;224877.00;;;;7391973;19;20137;-75
2022/03/22 01:19:10;;;;;;;11.53;8.40;;;1.40;1.00;196.50;224877.00;;;;7393964;19;20133;-76
2022/03/22 01:21:37;;;;;;;13.97;9.20;;;1.50;1.00;196.50;224877.00;;;;7395306;19;20125;-75
2022/03/22 01:24:11;;;;;;;18.00;9.40;;;1.50;1.00;196.50;224877.00;;;;7394998;19;20603;-74
2022/03/22 01:26:39;;;;;;;13.73;8.43;;;1.50;1.00;196.50;224877.00;;;;7391802;19;20164;-74
2022/03/22 01:29:06;;;;;;;11.97;8.80;;;1.40;1.00;196.50;224877.00;;;;7391004;19;20172;-76
2022/03/22 01:31:40;;;;;;;12.87;9.03;;;1.40;1.00;196.50;224877.00;;;;7394736;19;20144;-75
2022/03/22 01:34:08;;;;;;;14.27;8.47;;;1.40;1.00;196.50;224877.00;;;;7393336;19;20123;-75
2022/03/22 01:36:35;;;;;;;15.87;8.47;;;1.40;1.00;196.50;224877.00;;;;7393054;19;20608;-74
2022/03/22 01:39:09;;;;;;;12.87;8.10;;;1.30;1.00;196.50;224877.00;;;;7394492;19;20133;-75
2022/03/22 01:41:36;;;;;;;15.07;8.80;;;1.30;1.00;196.50;224877.00;;;;7393125;19;20148;-75
2022/03/22 01:44:04;;;;;;;13.40;8.20;;;1.30;1.00;196.50;224877.00;;;;7393052;19;20145;-75
2022/03/22 01:46:37;;;;;;;13.37;9.33;;;1.30;1.00;196.50;224877.00;;;;7394083;19;20623;-74
2022/03/22 01:49:06;;;;;;;15.73;9.03;;;1.30;1.00;196.50;224877.00;;;;7391236;19;20627;-75
2022/03/22 01:51:36;;;;;;;15.60;8.70;;;1.20;1.00;196.50;224877.00;;;;7394460;19;20125;-75
2022/03/22 01:54:13;;;;;;;14.40;8.73;;;1.20;1.00;196.50;224877.00;;;;7395195;19;20579;-75
2022/03/22 01:56:40;;;;;;;10.57;7.83;;;1.10;1.00;196.50;224877.00;;;;7392699;19;20635;-75
2022/03/22 01:59:08;;;;;;;12.03;8.37;;;1.20;1.00;196.50;224877.00;;;;7393085;19;20137;-74
2022/03/22 02:07:22;;;;;;;14.00;8.53;;;1.60;1.00;196.50;224877.00;;;;7394044;19;20597;-78
2022/03/22 02:09:49;;;;;;;11.80;7.97;;;1.80;1.00;196.50;224877.00;;;;7392559;19;20125;-78
2022/03/22 02:12:16;;;;;;;17.13;8.33;;;1.90;1.00;196.50;224877.00;;;;7393177;19;20618;-78
2022/03/22 02:14:57;;;;;;;12.20;8.27;;;1.90;1.00;196.50;224877.00;;;;7394411;19;20125;-78
2022/03/22 02:17:24;;;;;;;13.17;8.93;;;2.10;1.00;196.50;224877.00;;;;7393122;19;20473;-79
2022/03/22 02:19:59;;;;;;;14.20;9.13;;;2.10;1.00;196.50;224877.00;;;;7391595;19;20603;-77
2022/03/22 02:22:35;;;;;;;14.20;8.60;;;2.20;1.00;196.50;224877.00;;;;7392121;19;20516;-78
2022/03/22 02:25:15;;;;;;;11.50;8.80;;;2.20;1.00;196.50;224877.00;;;;7392272;19;20121;-78
2022/03/22 02:27:54;;;;;;;12.77;8.70;;;2.20;1.00;196.50;224877.00;;;;7391356;19;20611;-77
2022/03/22 02:30:29;;;;;;;13.40;8.63;;;2.20;1.00;196.50;224877.00;;;;7392355;19;20730;-78
2022/03/22 02:33:01;;;;;;;11.43;8.53;;;2.10;1.00;196.50;224877.00;;;;7392472;19;20117;-78
2022/03/22 02:35:35;;;;;;;14.27;9.43;;;2.00;1.00;196.50;224877.00;;;;7392024;19;20581;-79
2022/03/22 02:38:04;;;;;;;12.60;9.30;;;1.80;1.00;196.50;224877.00;;;;7392341;19;20141;-80
2022/03/22 02:40:31;;;;;;;12.10;8.70;;;1.70;1.00;196.50;224877.00;;;;7390967;19;20144;-79
2022/03/22 02:43:05;;;;;;;11.90;8.53;;;;;196.50;224877.00;;;;7390713;19;20655;-79
2022/03/22 02:45:32;;;;;;;11.40;8.50;;;1.40;1.00;196.50;224877.00;;;;7392426;19;20216;-79
2022/03/22 02:47:59;;;;;;;14.50;8.90;;;1.30;1.00;196.50;224877.00;;;;7390253;19;20667;-79
2022/03/22 02:50:32;;;;;;;18.57;9.23;;;1.30;1.00;196.50;224877.00;;;;7391735;19;20125;-78
2022/03/22 02:53:01;;;;;;;11.53;8.67;;;1.30;1.00;196.50;224877.00;;;;7392089;19;20137;-78
2022/03/22 02:55:28;;;;;;;13.30;8.20;;;1.40;1.00;196.50;224877.00;;;;7390350;19;20136;-77
2022/03/22 02:58:01;;;;;;;12.80;8.80;;;1.40;1.00;196.50;224877.00;;;;7390623;19;20212;-78
2022/03/22 03:00:28;;;;;;;14.27;9.07;;;1.30;1.00;196.50;224877.00;;;;7390868;19;20497;-78
2022/03/22 03:02:56;;;;;;;12.67;8.70;;;1.30;1.00;196.50;224877.00;;;;7390488;19;20175;-77
2022/03/22 03:05:29;;;;;;;14.30;8.33;;;1.20;1.00;196.50;224877.00;;;;7390990;19;20636;-77
2022/03/22 03:07:56;;;;;;;14.93;8.77;;;1.10;1.00;196.50;224877.00;;;;7389110;19;20133;-77
2022/03/22 03:10:24;;;;;;;11.30;8.57;;;1.00;1.00;196.50;224877.00;;;;7390988;19;20543;-78
2022/03/22 03:13:05;;;;;;;15.20;8.73;;;0.90;1.00;196.50;224877.00;;;;7389756;19;20157;-78
2022/03/22 03:15:33;;;;;;;14.23;8.67;;;0.90;1.00;196.50;224877.00;;;;7390223;19;20128;-77
2022/03/22 03:18:06;;;;;;;15.20;8.23;;;1.00;1.00;196.50;224877.00;;;;7392863;19;20129;-78
2022/03/22 03:20:34;;;;;;;13.60;8.87;;;1.00;1.00;196.50;224877.00;;;;7389724;19;20204;-77
2022/03/22 03:23:02;;;;;;;11.33;7.60;;;1.10;1.00;196.50;224877.00;;;;7389905;19;20147;-78
2022/03/22 03:25:36;;;;;;;12.40;8.27;;;1.20;1.00;196.50;224877.00;;;;7390269;19;20168;-80
2022/03/22 03:28:09;;;;;;;14.83;8.20;;;1.20;1.00;196.50;224877.00;;;;7388436;19;20335;-78
2022/03/22 03:30:50;;;;;;;15.20;8.20;;;1.20;1.00;196.50;224877.00;;;;7391605;19;20655;-78
2022/03/22 03:33:17;;;;;;;14.93;8.27;;;1.10;1.00;196.50;224877.00;;;;7389922;19;20145;-78
2022/03/22 03:35:50;;;;;;;15.50;8.10;;;1.10;1.00;196.50;224877.00;;;;7391194;19;20144;-78
2022/03/22 03:38:17;;;;;;;10.93;7.73;;;1.10;1.00;196.50;224877.00;;;;7391862;19;20128;-79
2022/03/22 03:43:36;;;;;;;15.53;8.87;;;1.10;1.00;196.50;224877.00;;;;7390707;19;20131;-78
2022/03/22 03:48:59;;;;;;;13.47;8.70;;;1.10;1.00;196.50;224877.00;;;;7390623;19;20598;-79
2022/03/22 03:51:28;;;;;;;18.33;9.80;;;1.20;1.00;196.50;224877.00;;;;7388735;19;20159;-78
2022/03/22 03:53:55;;;;;;;13.77;8.70;;;1.10;1.00;196.50;224877.00;;;;7389655;19;20179;-77
2022/03/22 03:56:28;;;;;;;14.97;8.73;;;1.00;1.00;196.50;224877.00;;;;7390335;19;20153;-78
2022/03/22 03:58:57;;;;;;;13.90;8.30;;;1.00;1.00;196.50;224877.00;;;;7389332;19;20141;-77
2022/03/22 04:01:25;;;;;;;16.03;10.23;;;0.90;1.00;196.50;224877.00;;;;7388479;19;20137;-78
2022/03/22 04:03:58;;;;;;;21.70;9.90;;;0.90;1.00;196.50;224877.00;;;;7389824;19;20144;-78
2022/03/22 04:06:27;;;;;;;16.07;10.33;;;0.80;1.00;196.50;224877.00;;;;7388424;19;20137;-77
2022/03/22 04:08:55;;;;;;;15.83;9.30;;;0.80;1.00;196.50;224877.00;;;;7387060;19;20169;-78
2022/03/22 04:11:29;;;;;;;16.60;10.50;;;0.70;1.00;196.50;224877.00;;;;7389559;19;20140;-78
2022/03/22 04:13:56;;;;;;;13.27;10.37;;;0.80;1.00;196.50;224877.00;;;;7390644;19;20146;-78
2022/03/22 04:16:24;;;;;;;16.07;10.00;;;0.70;1.00;196.50;224877.00;;;;7388465;19;20608;-78
2022/03/22 04:18:57;;;;;;;19.70;10.60;;;0.80;9.70;196.50;224877.00;;;;7389533;19;20148;-77
2022/03/22 04:21:24;;;;;;;16.33;10.50;;;0.70;7.00;196.50;224877.00;;;;7395657;19;20133;-79
2022/03/22 04:23:51;;;;;;;16.10;10.77;;;0.80;8.00;196.50;224877.00;;;;7395426;19;20468;-79
2022/03/22 04:26:25;;;;;;;20.30;10.37;;;0.90;1.00;196.50;224877.00;;;;7393611;19;20524;-77
2022/03/22 04:34:57;;;;;;;16.83;10.57;;;1.20;1.00;196.50;224877.00;;;;7397581;19;20130;-79
2022/03/22 04:37:30;;;;;;;19.57;9.90;;;1.20;1.00;196.50;224877.00;;;;7396147;19;20164;-79
2022/03/22 04:39:57;;;;;;;19.23;10.30;;;1.20;1.00;196.50;224877.00;;;;7395967;19;20186;-77
2022/03/22 04:42:24;;;;;;;17.53;10.70;;;1.10;1.00;196.50;224877.00;;;;7397912;19;20142;-80
2022/03/22 04:44:58;;;;;;;18.73;10.60;;;1.10;1.00;196.50;224877.00;;;;7395621;19;20152;-79
2022/03/22 04:47:26;;;;;;;14.47;10.30;;;1.00;1.00;196.50;224877.00;;;;7395483;19;20233;-79
2022/03/22 04:49:53;;;;;;;13.50;9.20;;;0.90;1.00;196.50;224877.00;;;;7393317;19;20145;-78
2022/03/22 04:58:17;;;;;;;17.67;11.03;;;1.10;1.00;196.50;224877.00;;;;7394910;19;20490;-79
2022/03/22 05:00:46;;;;;;;15.77;9.77;;;1.20;1.00;196.50;224877.00;;;;7396098;19;20135;-79
2022/03/22 05:03:13;;;;;;;15.23;9.97;;;1.40;1.00;196.50;224877.00;;;;7395041;19;20133;-78
2022/03/22 05:08:33;;;;;;;15.33;10.23;;;1.80;1.00;196.50;224877.00;;;;7393879;19;20157;-79
2022/03/22 05:11:07;;;;;;;16.50;9.83;;;1.90;1.00;196.50;224877.00;;;;7393974;19;20769;-79
2022/03/22 05:13:34;;;;;;;15.90;10.40;;;1.90;1.00;196.50;224877.00;;;;7396397;19;20596;-79
2022/03/22 05:16:03;;;;;;;15.10;9.80;;;2.10;1.00;196.50;224877.00;;;;7394741;19;20197;-79
2022/03/22 05:18:36;;;;;;;16.10;9.67;;;2.20;1.00;196.50;224877.00;;;;7395767;19;20152;-80
2022/03/22 05:21:04;;;;;;;15.00;10.37;;;2.20;1.00;196.50;224877.00;;;;7394033;19;20196;-79
2022/03/22 05:23:35;;;;;;;13.93;9.80;;;2.30;1.00;196.50;224877.00;;;;7393018;19;20129;-79
2022/03/22 05:26:11;;;;;;;17.50;9.10;;;2.20;1.00;196.50;224877.00;;;;7391918;19;20140;-80
2022/03/22 05:28:52;;;;;;;15.17;9.37;;;2.00;1.00;196.50;224877.00;;;;7390135;19;20179;-79
2022/03/22 05:31:26;;;;;;;13.20;8.50;;;1.80;1.00;196.50;224877.00;;;;7389587;19;20128;-78
2022/03/22 05:33:53;;;;;;;15.33;9.60;;;1.60;1.00;196.50;224877.00;;;;7393209;19;20152;-79
2022/03/22 05:36:20;;;;;;;14.30;8.77;;;1.50;1.00;196.50;224877.00;;;;7392326;19;20137;-80
2022/03/22 05:38:54;;;;;;;15.00;8.93;;;1.30;1.00;196.50;224877.00;;;;7393429;19;20152;-78
2022/03/22 05:41:22;;;;;;;12.10;8.17;;;1.10;1.00;196.50;224877.00;;;;7394069;19;20130;-79
2022/03/22 05:43:50;;;;;;;11.17;7.97;;;1.00;1.00;196.50;224877.00;;;;7392942;19;20163;-78
2022/03/22 05:46:23;;;;;;;15.40;7.57;;;0.90;1.00;196.50;224877.00;;;;7393144;19;20141;-78
2022/03/22 05:48:50;;;;;;;12.90;8.13;;;0.80;1.00;196.50;224877.00;;;;7393137;19;20612;-79
2022/03/22 05:51:17;;;;;;;12.77;7.83;;;0.90;1.00;196.50;224877.00;;;;7393423;19;20505;-79
2022/03/22 05:53:52;;;;;;;11.27;7.60;;;1.10;1.00;196.50;224877.00;;;;7392852;19;20547;-79
2022/03/22 05:56:19;;;;;;;16.83;8.10;;;1.30;1.00;196.50;224877.00;;;;7393581;19;20597;-78
2022/03/22 05:58:46;;;;;;;13.20;7.43;;;1.40;1.00;196.50;224877.00;;;;7393529;19;20127;-78
2022/03/22 06:01:21;;;;;;;10.47;7.17;;;1.60;1.00;196.50;224877.00;;;;7392085;19;20219;-78
2022/03/22 06:03:48;;;;;;;12.17;7.03;;;1.80;1.00;196.50;224877.00;;;;7393249;19;20624;-78
2022/03/22 06:06:15;;;;;;;13.13;6.33;;;1.90;1.00;196.50;224877.00;;;;7392725;19;20140;-78
2022/03/22 06:08:50;;;;;;;14.87;7.03;;;2.10;1.00;196.50;224877.00;;;;7391910;19;20158;-79
2022/03/22 06:11:18;;;;;;;14.90;7.00;;;2.30;1.00;196.50;224877.00;;;;7391887;19;20243;-78
2022/03/22 06:13:45;;;;;;;9.00;5.93;;;2.50;1.00;196.50;224877.00;;;;7393143;19;20587;-78
2022/03/22 06:16:18;;;;;;;18.07;6.63;;;2.80;1.00;196.50;224877.00;;;;7391910;19;20145;-79
2022/03/22 06:18:46;;;;;;;13.77;6.07;;;3.00;1.00;196.50;224877.00;;;;7392151;19;20151;-80
2022/03/22 06:21:14;;;;;;;13.73;6.67;;;3.20;1.00;196.50;224877.00;;;;7394645;19;20223;-79
2022/03/22 06:23:48;;;;;;;10.07;5.50;;;3.50;1.00;196.50;224877.00;;;;7391486;19;20140;-79
2022/03/22 06:26:15;;;;;;;10.67;6.23;;;3.80;1.00;196.50;224877.00;;;;7390205;19;20609;-80
2022/03/22 06:28:43;;;;;;;13.93;6.20;;;4.00;1.00;196.50;224877.00;;;;7393145;19;20619;-79
2022/03/22 06:31:24;;;;;;;10.67;6.27;;;4.20;1.00;196.50;224877.00;;;;7392268;19;20600;-80
2022/03/22 06:33:51;;;;;;;9.67;5.50;;;4.30;1.00;196.50;224877.00;;;;7391190;19;20137;-79
2022/03/22 06:36:24;;;;;;;16.20;5.77;;;4.40;1.00;196.50;224877.00;;;;7391388;19;20596;-78
2022/03/22 06:38:51;;;;;;;9.43;6.07;;;4.70;1.00;196.50;224877.00;;;;7390276;19;20490;-78
2022/03/22 06:41:18;;;;;;;12.00;6.37;;;4.80;1.00;196.50;224877.00;;;;7388972;19;20600;-78
2022/03/22 06:43:52;;;;;;;15.87;6.17;;;5.00;1.00;196.50;224877.00;;;;7390270;19;20140;-79
2022/03/22 06:46:22;;;;;;;10.63;6.63;;;;;196.50;224877.00;;;;7392510;19;20157;-80
2022/03/22 06:48:49;;;;;;;16.03;7.23;;;5.40;1.00;196.50;224877.00;;;;7389025;19;20209;-79
2022/03/22 06:51:26;;;;;;;19.57;8.13;;;5.70;99.90;196.50;224877.00;;;;7391291;19;20144;-79
2022/03/22 06:53:53;;;;;;;16.37;8.27;;;6.00;99.90;196.50;224877.00;;;;7391849;19;20141;-79
2022/03/22 06:56:20;;;;;;;10.83;8.17;;;6.30;99.90;196.50;224877.00;;;;7391444;19;20158;-77
2022/03/22 06:58:54;;;;;;;12.73;8.57;;;6.70;99.90;196.50;224877.00;;;;7390949;19;20150;-78
2022/03/22 07:01:21;;;;;;;12.33;7.93;;;7.10;99.90;196.50;224877.00;;;;7390018;19;20140;-80
2022/03/22 07:03:48;;;;;;;12.97;7.50;;;7.60;99.90;196.50;224877.00;;;;7391244;19;20475;-79
2022/03/22 07:06:22;;;;;;;12.73;9.17;;;8.00;99.90;196.50;224877.00;;;;7390146;19;20152;-79
2022/03/22 07:08:49;;;;;;;13.45;9.18;;;8.50;99.90;196.50;224877.00;;;;7390290;19;20148;-78
2022/03/22 07:14:08;;;;;;;14.95;8.18;;;9.40;99.90;196.50;224877.00;;;;7391155;19;20133;-78
2022/03/22 07:16:36;;;;;;;11.18;9.13;;;9.60;99.90;196.50;224877.00;;;;7389612;19;20608;-78
2022/03/22 07:19:03;;;;;;;14.68;8.77;;;9.90;99.90;196.50;224877.00;;;;7390354;19;20145;-79
2022/03/22 07:21:36;;;;;;;12.98;8.70;;;9.90;99.90;196.50;224877.00;;;;7390915;19;20117;-78
2022/03/22 07:24:04;;;;;;;14.88;8.80;;;10.10;99.90;196.50;224877.00;;;;7390104;19;20117;-79
2022/03/22 07:26:31;;;;;;;11.68;9.00;;;10.40;99.90;196.50;224877.00;;;;7388872;19;20168;-78
2022/03/22 07:29:13;;;;;;;13.43;8.98;;;10.70;99.90;196.50;224877.00;;;;7391409;19;20509;-79
2022/03/22 07:31:41;;;;;;;12.57;9.00;;;11.00;99.90;196.50;224877.00;;;;7389550;19;20133;-78
2022/03/22 07:34:18;;;;;;;13.10;8.63;;;11.30;99.90;196.50;224877.00;;;;7389994;19;20162;-78
2022/03/22 07:36:47;;;;;;;14.48;8.73;;;11.60;99.90;196.50;224877.00;;;;7390059;19;20140;-78
2022/03/22 07:39:19;;;;;;;11.50;8.77;;;11.70;99.90;196.50;224877.00;;;;7390607;19;20164;-78
2022/03/22 07:41:53;;;;;;;14.20;8.90;;;11.70;99.90;196.50;224877.00;;;;7388965;19;20492;-78
2022/03/22 07:44:20;;;;;;;13.63;9.32;;;11.80;99.90;196.50;224877.00;;;;7389822;19;20145;-78
2022/03/22 07:46:48;;;;;;;12.23;9.30;;;11.70;99.90;196.50;224877.00;;;;7390425;19;20137;-79
2022/03/22 07:54:59;;;;;;;13.55;9.55;;;11.80;99.90;196.50;224877.00;;;;7390788;19;20608;-79
2022/03/22 07:57:27;;;;;;;16.65;9.98;;;12.00;99.90;196.50;224877.00;;;;7397348;19;20137;-79
2022/03/22 07:59:54;;;;;;;14.88;9.57;;;12.10;99.90;196.50;224877.00;;;;7399085;19;20592;-79
2022/03/22 08:02:27;;;;;;;14.57;8.68;;;12.00;99.90;196.50;224877.00;;;;7396105;19;20140;-79
2022/03/22 08:04:55;;;;;;;19.95;9.10;;;12.10;99.90;196.50;224877.00;;;;7396304;19;20175;-79
2022/03/22 08:07:22;;;;;;;12.82;8.85;;;12.30;99.90;196.50;224877.00;;;;7397469;19;20142;-78
2022/03/22 08:09:56;;;;;;;11.65;7.93;;;12.60;99.90;196.50;224877.00;;;;7394436;19;20129;-80
2022/03/22 08:12:27;;;;;;;12.38;8.55;;;12.80;99.90;196.50;224877.00;;;;7396240;19;20212;-77
2022/03/22 08:14:54;;;;;;;10.48;6.93;;;12.90;99.90;196.50;224877.00;;;;7396420;19;20572;-78
2022/03/22 08:17:30;;;;;;;9.70;6.20;;;12.80;99.90;196.50;224877.00;;;;7394329;19;20573;-79
2022/03/22 08:20:05;;;;;;;12.48;8.52;;;13.00;99.90;196.50;224877.00;;;;7394441;19;20215;-78
2022/03/22 08:23:02;;;;;;;14.68;8.75;;;13.00;99.90;196.50;224877.00;;;;7390022;19;20144;-78
2022/03/22 08:25:37;;;;;;;14.30;8.40;;;13.10;99.90;196.50;224877.00;;;;7389395;19;20165;-79
2022/03/22 08:28:25;;;;;;;13.65;8.50;;;13.50;99.90;196.50;224877.00;;;;7390712;19;20785;-77
2022/03/22 08:30:59;;;;;;;13.75;8.02;;;14.00;99.90;196.50;224877.00;;;;7392828;19;20125;-78
2022/03/22 08:33:33;;;;;;;16.90;8.23;;;14.30;99.90;196.50;224877.00;;;;7391845;19;20545;-78
2022/03/22 08:36:00;;;;;;;12.32;7.53;;;14.90;99.90;196.50;224877.00;;;;7391682;19;20152;-77
2022/03/22 08:38:27;;;;;;;9.48;7.35;;;15.30;99.90;196.50;224877.00;;;;7392129;19;20141;-80
2022/03/22 08:41:01;;;;;;;14.57;8.48;;;15.70;99.90;196.50;224877.00;;;;7391450;19;20610;-79
2022/03/22 08:43:30;;;;;;;11.15;7.90;;;15.90;99.90;196.50;224877.00;;;;7390232;19;20145;-79
2022/03/22 08:45:57;;;;;;;10.23;8.23;;;16.10;92.30;196.50;224877.00;;;;7390728;19;20171;-78
2022/03/22 08:48:31;;;;;;;15.55;8.00;;;16.00;85.40;196.50;224877.00;;;;7391578;19;20139;-77
2022/03/22 08:50:59;;;;;;;13.88;8.63;;;16.00;91.20;196.50;224877.00;;;;7386553;19;20153;-78
2022/03/22 08:53:27;;;;;;;11.02;8.32;;;15.90;88.60;196.50;224877.00;;;;7388831;19;20133;-78
2022/03/22 08:56:03;;;;;;;10.45;8.48;;;15.90;96.90;196.50;224877.00;;;;7389527;19;20152;-80
2022/03/22 08:58:31;;;;;;;12.55;8.27;;;15.80;92.80;196.50;224877.00;;;;7395073;19;20137;-78
2022/03/22 09:00:58;;;;;;;15.32;8.38;;;15.40;99.90;196.50;224877.00;;;;7394542;19;20140;-79
2022/03/22 09:03:32;;;;;;;14.80;8.43;;;15.80;99.90;196.50;224877.00;;;;7395967;19;20155;-79
2022/03/22 09:06:08;;;;;;;12.90;7.75;;;16.10;92.00;196.50;224877.00;;;;7393656;19;20500;-78
2022/03/22 09:08:42;;;;;;;11.80;8.27;;;16.80;84.30;196.50;224877.00;;;;7394457;19;20184;-80
2022/03/22 09:11:10;;;;;;;11.35;8.73;;;16.90;77.70;196.50;224877.00;;;;7395574;19;20129;-78
2022/03/22 09:13:40;;;;;;;21.27;9.93;;;17.30;69.00;196.50;224877.00;;;;7394002;19;20129;-79
2022/03/22 09:16:15;;;;;;;13.48;8.60;;;17.50;62.80;196.50;224877.00;;;;7394292;19;20137;-77
2022/03/22 09:18:43;;;;;;;10.32;8.05;;;17.90;53.30;196.50;224877.00;;;;7394541;19;20596;-79
2022/03/22 09:21:11;;;;;;;12.25;7.70;;;18.00;41.10;196.50;224877.00;;;;7395480;19;20129;-78
2022/03/22 09:23:44;;;;;;;12.25;7.50;;;18.30;36.00;196.50;224877.00;;;;7394249;19;20145;-79
2022/03/22 09:26:12;;;;;;;13.77;7.07;;;18.50;32.10;196.50;224877.00;;;;7392917;19;20171;-79
2022/03/22 09:28:39;;;;;;;11.07;8.15;;;18.50;33.50;196.50;224877.00;;;;7392940;19;21598;-77
2022/03/22 09:31:24;;;;;;;16.30;8.25;;;18.80;44.80;196.50;224877.00;;;;7393718;19;20240;-78
2022/03/22 09:33:52;;;;;;;10.73;7.93;;;19.10;19.30;196.50;224877.00;;;;7394698;19;20141;-76
2022/03/22 09:36:26;;;;;;;15.75;8.20;;;18.90;17.10;196.50;224877.00;;;;7393442;19;20125;-79
2022/03/22 09:38:53;;;;;;;12.27;7.53;;;18.90;18.20;196.50;224877.00;;;;7392590;19;20604;-78
2022/03/22 09:41:22;;;;;;;12.27;7.13;;;18.70;18.30;196.50;224877.00;;;;7393660;19;20142;-77
2022/03/22 09:43:59;;;;;;;9.43;7.40;;;18.60;14.50;196.50;224877.00;;;;7391226;19;20136;-77
2022/03/22 09:46:26;;;;;;;8.77;7.53;;;18.70;38.30;196.50;224877.00;;;;7390663;19;20176;-78
2022/03/22 09:48:56;;;;;;;12.75;7.25;;;18.90;12.90;196.50;224877.00;;;;7392812;19;20162;-78
2022/03/22 09:51:45;;;;;;;10.35;6.80;;;19.10;14.10;196.50;224877.00;;;;7391537;19;20140;-80
2022/03/22 09:54:18;;;;;;;9.65;7.60;;;18.90;12.30;196.50;224877.00;;;;7392967;19;20147;-80
2022/03/22 09:56:53;;;;;;;10.77;7.82;;;19.10;8.10;196.50;224877.00;;;;7391669;19;20159;-77
2022/03/22 09:59:20;;;;;;;10.30;7.82;;;19.00;12.50;196.50;224877.00;;;;7392190;19;20232;-78
2022/03/22 10:01:47;;;;;;;8.38;7.30;;;18.90;7.80;196.50;224877.00;;;;7392354;19;20503;-77
2022/03/22 10:04:21;;;;;;;11.73;7.72;;;19.00;15.80;196.50;224877.00;;;;7392725;19;20606;-78
2022/03/22 10:06:50;;;;;;;10.52;8.07;;;18.40;16.90;196.50;224877.00;;;;7391885;19;20162;-79
2022/03/22 10:09:31;;;;;;;11.68;6.93;;;18.60;17.50;196.50;224877.00;;;;7392775;19;20166;-78
2022/03/22 10:12:10;;;;;;;10.93;7.45;;;18.50;16.20;196.50;224877.00;;;;7390032;19;20169;-77
2022/03/22 10:14:41;;;;;;;9.60;6.90;;;18.70;16.40;196.50;224877.00;;;;7390365;19;20200;-81
2022/03/22 10:17:20;;;;;;;8.43;5.70;;;18.70;15.50;196.50;224877.00;;;;7389787;19;20785;-77
2022/03/22 10:19:51;;;;;;;13.45;6.90;;;18.80;5.90;196.50;224877.00;;;;7390517;19;20584;-78
2022/03/22 10:22:28;;;;;;;9.63;6.32;;;18.90;3.50;196.50;224877.00;;;;7391411;19;20148;-77
2022/03/22 10:25:02;;;;;;;14.13;6.82;;;19.50;2.50;196.50;224877.00;;;;7389389;19;20169;-79
2022/03/22 10:27:38;;;;;;;11.52;5.82;;;19.40;1.00;196.50;224877.00;;;;7388178;19;20162;-79
2022/03/22 10:30:32;;;;;;;14.00;6.63;;;18.90;1.00;196.50;224877.00;;;;7385705;19;20164;-78
2022/03/22 10:33:13;;;;;;;10.82;6.55;;;19.10;2.50;196.50;224877.00;;;;7388752;19;20650;-79
2022/03/22 10:35:49;;;;;;;9.85;5.93;;;19.10;1.00;196.50;224877.00;;;;7388828;19;20608;-80
2022/03/22 10:38:23;;;;;;;10.77;5.40;;;19.40;1.00;196.50;224877.00;;;;7388860;19;20145;-79
2022/03/22 10:40:52;;;;;;;10.45;5.47;;;19.30;1.00;196.50;224877.00;;;;7391573;19;20132;-79
2022/03/22 10:43:26;;;;;;;10.82;6.38;;;19.30;1.00;196.50;224877.00;;;;7392441;19;20611;-77
2022/03/22 10:46:00;;;;;;;12.27;6.05;;;19.30;1.00;196.50;224877.00;;;;7392235;19;20160;-77
2022/03/22 10:48:38;;;;;;;10.23;6.20;;;19.40;1.00;196.50;224877.00;;;;7390915;19;20139;-78
2022/03/22 10:51:15;;;;;;;7.25;5.40;;;19.20;9.30;196.50;224877.00;;;;7389550;19;20442;-78
2022/03/22 10:53:42;;;;;;;11.70;6.20;;;19.40;1.00;196.50;224877.00;;;;7391935;19;20612;-78
2022/03/22 10:56:12;;;;;;;10.35;6.22;;;19.20;1.00;196.50;224877.00;;;;7391207;19;20121;-77
2022/03/22 10:58:46;;;;;;;11.30;7.15;;;19.10;1.00;196.50;224877.00;;;;7392250;19;20128;-77
2022/03/22 11:01:20;;;;;;;8.60;5.95;;;19.50;1.00;196.50;224877.00;;;;7390518;19;20600;-77
2022/03/22 11:03:58;;;;;;;10.55;6.53;;;19.60;1.00;196.50;224877.00;;;;7391827;19;20136;-79
2022/03/22 11:06:30;;;;;;;12.82;7.00;;;19.50;1.00;196.50;224877.00;;;;7391001;19;20361;-77
2022/03/22 11:09:05;;;;;;;10.05;5.90;;;19.20;1.00;196.50;224877.00;;;;7392267;19;20154;-78
2022/03/22 11:11:36;;;;;;;9.30;6.30;;;19.30;1.00;196.50;224877.00;;;;7389225;19;20467;-79
2022/03/22 11:14:03;;;;;;;13.85;6.82;;;19.60;1.00;196.50;224877.00;;;;7391227;19;20140;-78
2022/03/22 11:16:39;;;;;;;11.15;6.70;;;19.50;1.00;196.50;224877.00;;;;7390371;19;20612;-78
2022/03/22 11:19:09;;;;;;;12.43;7.03;;;19.90;1.00;196.50;224877.00;;;;7390385;19;20483;-77
2022/03/22 11:21:43;;;;;;;11.98;6.88;;;19.60;1.00;196.50;224877.00;;;;7391770;19;20143;-77
2022/03/22 11:24:30;;;;;;;14.65;7.50;;;18.80;1.00;196.50;224877.00;;;;7387641;19;20160;-80
2022/03/22 11:26:57;;;;;;;10.65;6.78;;;18.90;1.00;196.50;224877.00;;;;7385355;19;20141;-79
2022/03/22 11:29:46;;;;;;;9.93;7.55;;;18.70;1.00;196.50;224877.00;;;;7381089;19;20179;-77
2022/03/22 11:35:15;;;;;;;11.20;7.38;;;19.40;1.00;196.50;224877.00;;;;7385251;19;20141;-77
2022/03/22 11:38:00;;;;;;;13.07;7.55;;;19.90;1.00;196.50;224877.00;;;;7385645;19;20596;-78